Time;durP1;ratioP1;P1;durP2;ratioP2;P2;SDS_P1;SDS_P2;PMS_P1;PMS_P2;Temp;Humidity;BMP_temperature;BMP_pressure;BME280_temperature;BME280_humidity;BME280_pressure;Samples;Min_cycle;Max_cycle;Signal;HPM_P1;HPM_P2
2022/12/20 00:01:23;;;;;;;40.00;18.08;;;;;;;5.21;68.54;99699.03;5163093;28;20054;-72
2022/12/20 00:04:13;;;;;;;30.67;13.90;;;;;;;5.14;68.08;99677.53;5163603;28;20057;-72
2022/12/20 00:07:02;;;;;;;36.33;16.35;;;;;;;5.35;67.31;99678.84;5162441;28;20058;-72
2022/12/20 00:09:52;;;;;;;35.72;16.83;;;;;;;5.46;67.06;99672.91;5161831;28;20136;-73
2022/12/20 00:12:42;;;;;;;32.25;16.50;;;;;;;5.43;67.80;99659.97;5156643;28;20046;-72
2022/12/20 00:15:32;;;;;;;39.33;17.67;;;;;;;5.33;67.11;99648.31;5156954;28;20057;-72
2022/12/20 00:18:22;;;;;;;42.13;19.45;;;;;;;5.26;67.38;99652.25;5163138;28;20051;-71
2022/12/20 00:21:13;;;;;;;34.95;17.33;;;;;;;5.27;67.26;99664.50;5161858;28;20077;-72
2022/12/20 00:24:05;;;;;;;40.42;18.10;;;;;;;5.17;67.45;99653.69;5147738;28;20136;-72
2022/12/20 00:26:55;;;;;;;32.05;15.80;;;;;;;5.15;68.24;99652.94;5153256;28;20133;-72
2022/12/20 00:29:45;;;;;;;32.72;16.13;;;;;;;5.31;67.42;99661.56;5156230;28;20057;-72
2022/12/20 00:32:35;;;;;;;35.75;16.58;;;;;;;5.33;67.28;99653.56;5147417;28;20061;-73
2022/12/20 00:35:25;;;;;;;39.55;16.75;;;;;;;5.21;68.46;99649.09;5163704;28;20060;-73
2022/12/20 00:38:15;;;;;;;33.60;15.90;;;;;;;5.40;67.29;99641.75;5162139;28;20454;-73
2022/12/20 00:41:08;;;;;;;31.77;15.57;;;;;;;5.71;66.99;99642.47;5150371;28;20520;-73
2022/12/20 00:44:00;;;;;;;30.60;16.05;;;;;;;5.60;67.11;99646.63;5149139;28;20065;-72
2022/12/20 00:46:50;;;;;;;34.28;15.63;;;;;;;5.62;66.91;99634.19;5148575;28;20093;-73
2022/12/20 00:49:40;;;;;;;34.85;16.75;;;;;;;5.59;66.72;99652.78;5162147;28;20061;-72
2022/12/20 00:52:30;;;;;;;37.50;15.50;;;;;;;5.48;67.43;99657.91;5160157;28;20054;-71
2022/12/20 00:55:20;;;;;;;36.80;18.08;;;;;;;5.24;66.80;99618.19;5155816;28;20496;-71
2022/12/20 00:58:11;;;;;;;40.83;17.90;;;;;;;5.42;66.63;99647.75;5159720;28;20523;-71
2022/12/20 01:01:02;;;;;;;37.13;17.45;;;;;;;5.33;67.18;99650.94;5153311;28;20145;-72
2022/12/20 01:03:53;;;;;;;38.55;16.90;;;;;;;5.18;67.35;99626.47;5162269;28;20439;-70
2022/12/20 01:06:43;;;;;;;34.65;17.58;;;;;;;5.34;67.00;99644.75;5147321;28;20176;-71
2022/12/20 01:09:33;;;;;;;41.70;18.85;;;;;;;5.17;67.16;99633.50;5161015;28;20061;-70
2022/12/20 01:12:23;;;;;;;36.63;17.25;;;;;;;5.38;67.62;99644.47;5160753;28;20061;-71
2022/12/20 01:15:14;;;;;;;32.25;16.25;;;;;;;5.29;67.63;99647.66;5151761;28;20054;-72
2022/12/20 01:18:05;;;;;;;37.50;16.67;;;;;;;5.41;67.63;99667.09;5157614;28;20516;-71
2022/12/20 01:21:07;;;;;;;34.55;16.60;;;;;;;5.69;66.35;99658.31;5147171;28;20054;-72
2022/12/20 01:23:58;;;;;;;32.90;15.57;;;;;;;5.62;66.92;99665.75;5161968;28;20065;-72
2022/12/20 01:26:48;;;;;;;33.88;15.05;;;;;;;5.56;66.96;99668.81;5144844;28;20195;-72
2022/12/20 01:29:40;;;;;;;36.58;16.17;;;;;;;5.67;66.51;99657.59;5151940;28;20104;-71
2022/12/20 01:32:30;;;;;;;38.45;16.20;;;;;;;5.60;66.60;99651.88;5172653;28;20060;-72
2022/12/20 01:35:20;;;;;;;33.13;15.48;;;;;;;5.86;65.80;99652.88;5162890;28;20061;-71
2022/12/20 01:38:10;;;;;;;36.10;15.43;;;;;;;5.67;66.14;99615.50;5147164;28;20082;-72
2022/12/20 01:41:02;;;;;;;31.75;15.00;;;;;;;5.91;65.80;99641.19;5146965;28;20113;-72
2022/12/20 01:44:01;;;;;;;30.48;14.30;;;;;;;5.85;66.03;99643.25;5155268;28;20054;-72
2022/12/20 01:46:54;;;;;;;32.15;15.27;;;;;;;5.64;66.14;99628.84;5147538;28;20188;-72
2022/12/20 01:49:48;;;;;;;32.45;15.38;;;;;;;5.54;66.04;99631.22;5161299;28;20053;-72
2022/12/20 01:52:41;;;;;;;32.38;14.70;;;;;;;5.18;67.64;99631.72;5160486;28;20078;-72
2022/12/20 01:55:32;;;;;;;29.48;15.57;;;;;;;5.36;66.72;99624.47;5160017;28;20133;-72
2022/12/20 01:58:22;;;;;;;34.83;15.98;;;;;;;5.18;67.70;99611.53;5159790;28;20051;-71
2022/12/20 02:01:12;;;;;;;36.03;15.73;;;;;;;5.33;66.65;99627.28;5160127;28;20064;-70
2022/12/20 02:04:03;;;;;;;35.08;15.30;;;;;;;5.28;67.50;99613.59;5161420;28;20539;-71
2022/12/20 02:06:52;;;;;;;36.47;16.02;;;;;;;5.52;66.68;99613.84;5162125;28;20519;-71
2022/12/20 02:09:43;;;;;;;31.38;14.73;;;;;;;5.54;66.55;99627.75;5157012;28;20440;-71
2022/12/20 02:12:44;;;;;;;35.47;15.93;;;;;;;5.18;67.55;99624.66;5151086;28;20050;-71
2022/12/20 02:15:53;;;;;;;39.20;17.95;;;;;;;5.29;67.44;99591.59;5142910;28;20436;-70
2022/12/20 02:19:17;;;;;;;31.17;15.55;;;;;;;5.32;66.92;99600.13;5146507;28;20497;-71
2022/12/20 02:22:14;;;;;;;35.92;16.80;;;;;;;5.22;67.20;99577.16;5161284;28;20523;-72
2022/12/20 02:25:10;;;;;;;32.92;15.90;;;;;;;5.30;67.80;99606.47;5159426;28;20128;-70
2022/12/20 02:28:21;;;;;;;32.35;16.05;;;;;;;4.91;68.34;99585.16;5153712;28;20061;-71
2022/12/20 02:31:16;;;;;;;32.97;14.63;;;;;;;4.83;69.20;99591.78;5160278;28;20157;-71
2022/12/20 02:34:09;;;;;;;35.65;16.20;;;;;;;5.21;68.17;99599.13;5160008;28;20054;-71
2022/12/20 02:36:59;;;;;;;34.10;15.70;;;;;;;5.40;67.87;99600.53;5148410;28;20073;-70
2022/12/20 02:39:50;;;;;;;33.65;16.60;;;;;;;5.54;66.67;99604.06;5152008;28;20570;-70
2022/12/20 02:42:41;;;;;;;36.35;16.23;;;;;;;5.18;67.09;99566.81;5146540;28;20495;-73
2022/12/20 02:45:35;;;;;;;31.95;14.82;;;;;;;5.51;66.47;99593.75;5166261;28;20058;-71
2022/12/20 02:48:30;;;;;;;32.30;15.60;;;;;;;5.85;66.92;99579.25;5164003;28;20054;-71
2022/12/20 02:51:23;;;;;;;31.60;15.77;;;;;;;5.93;65.91;99595.44;5164253;28;20061;-71
2022/12/20 02:54:15;;;;;;;32.25;15.95;;;;;;;5.84;65.18;99564.41;5158018;28;20078;-71
2022/12/20 02:57:21;;;;;;;34.85;16.73;;;;;;;6.11;65.03;99583.69;5160466;28;20049;-71
2022/12/20 03:00:14;;;;;;;37.13;16.15;;;;;;;5.72;65.87;99575.72;5156285;28;20412;-70
2022/12/20 03:03:24;;;;;;;31.92;15.27;;;;;;;5.80;66.26;99584.00;5156229;28;20431;-71
2022/12/20 03:06:15;;;;;;;32.90;16.15;;;;;;;5.92;65.96;99566.53;5164583;28;20116;-71
2022/12/20 03:09:05;;;;;;;34.72;15.88;;;;;;;5.34;66.91;99518.53;5164279;28;20455;-70
2022/12/20 03:11:58;;;;;;;34.45;16.70;;;;;;;5.11;68.92;99544.50;5162727;28;20058;-72
2022/12/20 03:14:48;;;;;;;28.42;13.85;;;;;;;5.59;67.50;99542.31;5156120;28;20085;-69
2022/12/20 03:17:39;;;;;;;35.10;15.15;;;;;;;5.34;68.61;99552.72;5163423;28;20235;-71
2022/12/20 03:20:29;;;;;;;32.20;15.68;;;;;;;6.23;64.35;99547.81;5164373;28;20815;-71
2022/12/20 03:23:20;;;;;;;30.67;14.93;;;;;;;6.02;66.40;99547.44;5164002;28;20058;-71
2022/12/20 03:26:11;;;;;;;30.42;15.05;;;;;;;5.90;65.52;99537.72;5161465;28;20141;-70
2022/12/20 03:29:06;;;;;;;28.40;15.00;;;;;;;5.67;67.37;99525.22;5157289;28;20050;-71
2022/12/20 03:31:56;;;;;;;32.85;15.45;;;;;;;6.02;66.00;99552.69;5159507;28;20057;-71
2022/12/20 03:34:46;;;;;;;33.38;15.07;;;;;;;6.14;65.82;99550.22;5149521;28;20057;-70
2022/12/20 03:37:40;;;;;;;27.15;15.15;;;;;;;6.41;64.67;99537.81;5164474;28;20530;-74
2022/12/20 03:40:32;;;;;;;32.67;14.82;;;;;;;6.35;64.62;99549.59;5162512;28;20140;-72
2022/12/20 03:43:23;;;;;;;29.23;15.35;;;;;;;6.30;65.25;99561.41;5156074;28;20105;-71
2022/12/20 03:46:14;;;;;;;30.85;14.68;;;;;;;6.08;65.70;99530.41;5163680;28;20058;-70
2022/12/20 03:49:04;;;;;;;29.52;14.25;;;;;;;6.47;64.35;99569.03;5164251;28;20117;-70
2022/12/20 03:51:59;;;;;;;29.92;14.65;;;;;;;6.07;65.26;99544.53;5162525;28;20058;-70
2022/12/20 03:54:50;;;;;;;30.02;14.35;;;;;;;6.31;64.69;99552.56;5133987;28;20125;-71
2022/12/20 03:57:45;;;;;;;30.95;14.05;;;;;;;6.23;64.94;99546.97;5153902;28;20432;-71
2022/12/20 04:00:48;;;;;;;29.02;13.60;;;;;;;6.18;65.86;99549.06;5152208;28;20046;-69
2022/12/20 04:04:04;;;;;;;28.40;14.52;;;;;;;6.00;65.42;99536.19;5163669;28;20615;-71
2022/12/20 04:06:55;;;;;;;32.25;14.50;;;;;;;5.69;66.98;99515.41;5148696;28;20528;-71
2022/12/20 04:09:45;;;;;;;27.73;13.73;;;;;;;5.77;65.98;99521.03;5160478;28;20520;-71
2022/12/20 04:12:37;;;;;;;26.20;13.25;;;;;;;5.94;65.39;99518.16;5155283;28;20058;-72
2022/12/20 04:15:30;;;;;;;30.60;14.88;;;;;;;5.84;65.79;99517.88;5157612;28;20060;-70
2022/12/20 04:18:21;;;;;;;33.10;14.85;;;;;;;5.96;66.27;99528.56;5148818;28;20077;-71
2022/12/20 04:21:12;;;;;;;30.13;13.40;;;;;;;6.10;65.03;99544.31;5162310;28;20073;-72
2022/12/20 04:24:06;;;;;;;29.52;14.18;;;;;;;5.97;65.58;99541.66;5163539;28;20072;-69
2022/12/20 04:27:05;;;;;;;33.15;13.60;;;;;;;5.82;65.57;99524.19;5150480;28;20069;-72
2022/12/20 04:29:55;;;;;;;28.75;12.98;;;;;;;6.07;65.90;99540.09;5148949;28;20090;-71
2022/12/20 04:32:45;;;;;;;29.92;14.13;;;;;;;5.96;65.95;99542.59;5162612;28;20056;-71
2022/12/20 04:35:37;;;;;;;33.15;13.55;;;;;;;5.87;65.67;99541.38;5163277;28;20077;-71
2022/12/20 04:38:28;;;;;;;28.25;13.48;;;;;;;5.92;65.36;99540.22;5162068;28;20425;-71
2022/12/20 04:41:22;;;;;;;27.40;13.88;;;;;;;5.87;65.76;99516.84;5158263;28;20065;-69
2022/12/20 04:44:18;;;;;;;29.00;14.18;;;;;;;6.05;65.84;99522.72;5150045;28;20050;-70
2022/12/20 04:47:09;;;;;;;29.27;14.02;;;;;;;5.91;65.70;99504.34;5148336;28;20050;-71
2022/12/20 04:49:59;;;;;;;29.80;14.35;;;;;;;5.37;66.75;99492.91;5161943;28;20046;-71
2022/12/20 04:56:01;;;;;;;28.38;14.23;;;;;;;5.05;68.60;99497.56;5155876;28;20054;-72
2022/12/20 04:58:53;;;;;;;29.40;14.15;;;;;;;4.77;69.66;99487.06;5160457;28;20046;-70
2022/12/20 05:01:43;;;;;;;30.73;14.40;;;;;;;4.46;70.63;99470.59;5155781;28;20061;-72
2022/12/20 05:04:38;;;;;;;28.55;13.38;;;;;;;4.67;70.71;99466.66;5162856;28;20057;-70
2022/12/20 05:07:28;;;;;;;29.73;14.43;;;;;;;5.14;69.91;99494.38;5162239;28;20128;-71
2022/12/20 05:10:19;;;;;;;25.63;14.18;;;;;;;5.62;66.97;99476.34;5162485;28;20065;-70
2022/12/20 05:13:10;;;;;;;30.02;14.60;;;;;;;5.61;67.33;99487.81;5154918;28;20057;-71
2022/12/20 05:16:05;;;;;;;31.13;14.63;;;;;;;5.70;67.21;99459.25;5146548;28;20114;-73
2022/12/20 05:18:57;;;;;;;29.67;14.50;;;;;;;6.16;64.96;99467.56;5142056;28;20050;-70
2022/12/20 05:28:09;;;;;;;28.58;13.65;;;;;;;6.35;64.92;99464.50;5160659;28;20133;-73
2022/12/20 05:31:00;;;;;;;26.65;13.60;;;;;;;6.46;64.61;99476.94;5148664;28;20061;-71
2022/12/20 05:33:53;;;;;;;29.85;14.27;;;;;;;6.46;65.06;99464.59;5153566;28;20061;-72
2022/12/20 05:36:46;;;;;;;26.92;13.27;;;;;;;6.65;65.12;99460.69;5161358;28;20061;-71
2022/12/20 05:39:36;;;;;;;28.85;13.50;;;;;;;6.61;64.11;99451.31;5161192;28;20053;-71
2022/12/20 05:42:31;;;;;;;29.25;13.95;;;;;;;6.42;64.43;99444.66;5157669;28;20171;-70
2022/12/20 05:45:22;;;;;;;27.73;13.57;;;;;;;6.30;65.75;99445.53;5152084;28;20141;-70
2022/12/20 05:48:19;;;;;;;30.75;14.27;;;;;;;6.33;65.09;99461.97;5175201;28;20062;-70
2022/12/20 05:51:10;;;;;;;34.10;14.85;;;;;;;6.13;65.32;99451.97;5153839;28;20047;-70
2022/12/20 05:54:13;;;;;;;30.15;14.55;;;;;;;5.99;66.56;99452.88;5154046;28;20062;-73
2022/12/20 05:57:09;;;;;;;31.30;14.48;;;;;;;5.91;66.63;99428.00;5161565;28;20069;-73
2022/12/20 06:00:04;;;;;;;30.35;14.43;;;;;;;6.28;65.86;99436.91;5145998;28;20046;-69
2022/12/20 06:02:54;;;;;;;29.30;13.70;;;;;;;6.38;65.61;99451.09;5162411;28;20096;-70
2022/12/20 06:05:45;;;;;;;29.00;14.02;;;;;;;6.24;65.28;99444.16;5147829;28;20049;-75
2022/12/20 06:08:41;;;;;;;28.27;13.75;;;;;;;6.36;64.51;99426.69;5161091;28;20420;-71
2022/12/20 06:11:37;;;;;;;28.85;14.25;;;;;;;6.09;65.43;99442.56;5160996;28;20427;-72
2022/12/20 06:14:30;;;;;;;31.20;13.65;;;;;;;6.11;65.06;99451.22;5139693;28;20543;-72
2022/12/20 06:17:21;;;;;;;28.38;12.98;;;;;;;6.18;65.71;99470.06;5159654;28;20052;-70
2022/12/20 06:20:13;;;;;;;28.90;13.50;;;;;;;6.05;65.52;99441.09;5140231;28;20563;-75
2022/12/20 06:23:08;;;;;;;29.27;13.88;;;;;;;5.86;66.02;99458.13;5160635;28;20612;-72
2022/12/20 06:26:08;;;;;;;27.08;13.23;;;;;;;5.95;66.64;99455.84;5159085;28;20094;-72
2022/12/20 06:29:09;;;;;;;30.15;13.45;;;;;;;6.06;65.11;99458.56;5148117;28;20045;-71
2022/12/20 06:32:04;;;;;;;29.80;16.30;;;;;;;5.89;66.18;99462.31;5174298;28;20050;-73
2022/12/20 06:34:54;;;;;;;29.73;14.45;;;;;;;5.94;66.06;99441.00;5145275;28;20054;-72
2022/12/20 06:37:45;;;;;;;30.30;13.63;;;;;;;6.02;65.68;99465.84;5161022;28;20065;-72
2022/12/20 06:40:36;;;;;;;33.33;14.48;;;;;;;6.01;65.99;99471.22;5160598;28;20053;-74
2022/12/20 06:43:27;;;;;;;32.58;15.07;;;;;;;5.90;66.53;99477.19;5155203;28;20059;-72
2022/12/20 06:46:17;;;;;;;27.23;14.32;;;;;;;5.95;66.31;99482.16;5149497;28;20073;-72
2022/12/20 06:49:09;;;;;;;31.55;14.60;;;;;;;5.89;65.93;99463.19;5140478;28;20505;-73
2022/12/20 06:51:59;;;;;;;29.05;14.25;;;;;;;5.79;66.74;99464.69;5143731;28;20118;-72
2022/12/20 06:55:20;;;;;;;30.92;15.40;;;;;;;5.84;66.26;99469.69;5141075;28;20059;-72
2022/12/20 06:58:12;;;;;;;30.70;15.27;;;;;;;5.63;66.70;99453.53;5156220;28;20061;-72
2022/12/20 07:01:03;;;;;;;32.38;16.48;;;;;;;5.73;65.70;99478.28;5152529;28;20047;-74
2022/12/20 07:03:53;;;;;;;28.23;14.77;;;;;;;5.60;66.60;99467.72;5154175;28;20058;-73
2022/12/20 07:06:43;;;;;;;33.80;15.88;;;;;;;5.58;66.36;99474.03;5159848;28;20452;-73
2022/12/20 07:09:33;;;;;;;36.80;16.42;;;;;;;5.47;67.01;99466.84;5149165;28;20133;-72
2022/12/20 07:12:24;;;;;;;38.35;18.90;;;;;;;5.50;67.09;99464.03;5157829;28;20051;-70
2022/12/20 07:15:15;;;;;;;31.83;15.18;;;;;;;5.48;67.50;99446.66;5149961;28;20434;-71
2022/12/20 07:18:06;;;;;;;31.75;15.90;;;;;;;5.61;67.45;99463.31;5160359;28;20554;-72
2022/12/20 07:21:00;;;;;;;31.00;14.50;;;;;;;5.62;67.22;99465.81;5160452;28;20180;-72
2022/12/20 07:23:51;;;;;;;30.40;14.77;;;;;;;5.69;66.67;99465.44;5161615;28;20054;-72
2022/12/20 07:26:44;;;;;;;32.88;16.48;;;;;;;5.59;66.97;99458.13;5158622;28;20741;-73
2022/12/20 07:29:35;;;;;;;27.50;13.05;;;;;;;5.71;66.82;99459.13;5156105;28;20161;-72
2022/12/20 07:32:25;;;;;;;27.40;13.93;;;;;;;5.73;66.25;99459.00;5159921;28;20054;-72
2022/12/20 07:35:15;;;;;;;23.08;11.98;;;;;;;5.67;66.59;99456.81;5164622;28;20105;-72
2022/12/20 07:38:05;;;;;;;30.23;12.93;;;;;;;5.84;66.54;99452.09;5161947;28;20089;-72
2022/12/20 07:40:55;;;;;;;29.95;13.27;;;;;;;5.88;66.16;99455.38;5164078;28;20515;-73
2022/12/20 07:43:45;;;;;;;30.27;13.05;;;;;;;5.81;67.03;99454.09;5162670;28;20121;-72
2022/12/20 07:46:38;;;;;;;29.15;13.35;;;;;;;5.97;66.22;99439.00;5146181;28;20129;-72
2022/12/20 07:49:29;;;;;;;29.23;13.48;;;;;;;6.08;66.88;99449.63;5143860;28;20141;-72
2022/12/20 07:52:24;;;;;;;33.00;15.90;;;;;;;6.40;65.08;99445.75;5149166;28;20077;-72
2022/12/20 07:55:14;;;;;;;42.78;18.55;;;;;;;5.95;66.79;99445.31;5164699;28;20052;-72
2022/12/20 07:58:07;;;;;;;45.33;19.50;;;;;;;6.21;65.54;99444.38;5162814;28;20108;-73
2022/12/20 08:00:58;;;;;;;28.63;15.50;;;;;;;6.34;65.87;99447.00;5149502;28;20054;-72
2022/12/20 08:03:52;;;;;;;39.65;17.15;;;;;;;6.38;64.71;99447.63;5148882;28;20055;-72
2022/12/20 08:06:42;;;;;;;29.77;14.60;;;;;;;6.61;65.06;99452.16;5152803;28;20125;-72
2022/12/20 08:09:38;;;;;;;33.40;15.52;;;;;;;6.55;65.02;99449.94;5164338;28;20066;-72
2022/12/20 08:12:30;;;;;;;30.42;14.38;;;;;;;6.26;65.93;99436.19;5163081;28;20069;-72
2022/12/20 08:15:21;;;;;;;27.92;13.18;;;;;;;6.48;65.35;99432.88;5161687;28;20052;-72
2022/12/20 08:18:12;;;;;;;28.58;13.15;;;;;;;6.74;64.83;99449.50;5169054;28;20073;-72
2022/12/20 08:21:02;;;;;;;26.20;12.95;;;;;;;6.67;65.59;99432.44;5154791;28;20046;-72
2022/12/20 08:23:52;;;;;;;23.52;13.07;;;;;;;6.86;65.47;99437.25;5160084;28;20058;-71
2022/12/20 08:26:42;;;;;;;21.98;11.52;;;;;;;6.93;65.52;99431.44;5150832;28;20057;-72
2022/12/20 08:29:32;;;;;;;25.08;10.38;;;;;;;7.18;64.17;99432.28;5143621;28;20053;-71
2022/12/20 08:32:22;;;;;;;22.75;10.40;;;;;;;7.45;63.08;99424.13;5151062;28;20529;-71
2022/12/20 08:35:14;;;;;;;21.30;10.35;;;;;;;7.29;63.89;99413.88;5149396;28;20054;-73
2022/12/20 08:38:04;;;;;;;40.35;17.92;;;;;;;7.19;63.41;99405.81;5159589;28;20476;-75
2022/12/20 08:40:55;;;;;;;35.05;17.13;;;;;;;7.35;64.09;99413.44;5147314;28;20054;-74
2022/12/20 08:43:46;;;;;;;78.28;32.92;;;;;;;7.43;64.30;99418.97;5146429;28;20046;-71
2022/12/20 08:46:36;;;;;;;93.07;36.67;;;;;;;7.38;63.48;99409.72;5161905;28;20208;-71
2022/12/20 08:49:27;;;;;;;88.35;39.35;;;;;;;7.54;63.28;99415.53;5161939;28;20192;-71
2022/12/20 08:52:17;;;;;;;37.58;18.17;;;;;;;7.50;63.68;99401.72;5161276;28;20050;-72
2022/12/20 08:55:07;;;;;;;30.20;14.68;;;;;;;7.59;63.53;99389.66;5155946;28;20050;-74
2022/12/20 08:57:58;;;;;;;19.80;11.07;;;;;;;7.71;63.64;99399.28;5161698;28;20054;-72
2022/12/20 09:00:48;;;;;;;16.00;9.05;;;;;;;7.74;64.28;99404.31;5159011;28;20520;-69
2022/12/20 09:03:39;;;;;;;26.70;12.30;;;;;;;7.71;64.45;99401.06;5161518;28;20065;-72
2022/12/20 09:06:29;;;;;;;22.58;11.20;;;;;;;7.58;64.35;99377.41;5162461;28;20137;-71
2022/12/20 09:09:19;;;;;;;30.90;13.57;;;;;;;7.63;64.22;99390.28;5162282;28;20062;-74
2022/12/20 09:12:09;;;;;;;31.17;14.63;;;;;;;7.65;64.23;99383.06;5158717;28;20065;-73
2022/12/20 09:15:00;;;;;;;18.15;8.85;;;;;;;7.51;63.03;99379.66;5163957;28;20128;-73
2022/12/20 09:17:50;;;;;;;18.20;8.48;;;;;;;7.27;64.90;99379.69;5143149;28;20421;-74
2022/12/20 09:20:44;;;;;;;17.10;7.97;;;;;;;7.28;63.84;99376.13;5161924;28;20061;-73
2022/12/20 09:23:35;;;;;;;18.48;8.77;;;;;;;7.70;63.43;99376.47;5155167;28;20129;-73
2022/12/20 09:26:26;;;;;;;15.05;8.10;;;;;;;8.03;62.88;99377.50;5156842;28;20192;-70
2022/12/20 09:29:16;;;;;;;19.67;8.23;;;;;;;8.12;62.84;99390.00;5154766;28;20054;-71
2022/12/20 09:32:16;;;;;;;24.52;10.15;;;;;;;8.35;62.64;99392.69;5160394;28;20065;-70
2022/12/20 09:35:07;;;;;;;27.45;13.63;;;;;;;8.08;62.45;99396.50;5161043;28;20078;-74
2022/12/20 09:37:57;;;;;;;29.27;12.88;;;;;;;8.16;63.32;99394.09;5155187;28;20848;-72
2022/12/20 09:40:51;;;;;;;36.53;16.17;;;;;;;8.15;64.12;99384.50;5160573;28;20144;-75
2022/12/20 09:43:41;;;;;;;27.48;15.43;;;;;;;8.07;63.71;99378.13;5160655;28;20043;-74
2022/12/20 09:46:32;;;;;;;36.13;14.55;;;;;;;8.08;64.43;99364.81;5161450;28;20452;-74
2022/12/20 09:49:27;;;;;;;18.67;7.97;;;;;;;8.41;63.04;99374.56;5161378;28;20061;-73
2022/12/20 09:52:29;;;;;;;15.13;7.80;;;;;;;8.10;63.08;99370.78;5153077;28;20418;-73
2022/12/20 09:55:49;;;;;;;16.58;7.43;;;;;;;7.84;64.37;99364.88;5169810;28;20061;-69
2022/12/20 09:59:00;;;;;;;15.18;6.93;;;;;;;7.82;63.82;99358.06;5158294;28;20061;-73
2022/12/20 10:01:51;;;;;;;11.80;6.68;;;;;;;7.75;63.86;99357.69;5151291;28;20054;-73
2022/12/20 10:04:42;;;;;;;13.68;7.30;;;;;;;7.66;64.42;99348.66;5157900;28;20061;-73
2022/12/20 10:07:45;;;;;;;18.35;7.50;;;;;;;7.77;65.00;99358.38;5156900;28;20139;-71
2022/12/20 10:10:49;;;;;;;14.73;7.85;;;;;;;8.42;61.83;99357.75;5150094;28;20050;-73
2022/12/20 10:13:57;;;;;;;14.85;6.93;;;;;;;8.77;61.67;99361.19;5159428;28;20133;-72
2022/12/20 10:17:01;;;;;;;20.30;9.27;;;;;;;8.74;62.27;99340.25;5150380;28;20046;-74
2022/12/20 10:20:03;;;;;;;29.23;16.83;;;;;;;8.22;63.71;99361.09;5158856;28;20057;-74
2022/12/20 10:23:01;;;;;;;30.98;14.82;;;;;;;8.56;63.18;99372.50;5158455;28;20428;-74
2022/12/20 10:25:55;;;;;;;23.08;12.32;;;;;;;8.49;63.55;99378.41;5158539;28;20553;-72
2022/12/20 10:28:46;;;;;;;;;;;;;;;8.48;63.43;99359.06;5160672;28;20097;-74
2022/12/20 10:31:41;;;;;;;46.38;19.35;;;;;;;8.46;63.20;99348.59;5147426;28;19944;-74
2022/12/20 10:34:31;;;;;;;64.28;25.35;;;;;;;8.31;63.75;99344.53;5159525;28;20134;-74
2022/12/20 10:37:28;;;;;;;41.47;18.50;;;;;;;8.47;63.61;99354.72;5141744;28;20061;-75
2022/12/20 10:40:27;;;;;;;27.63;11.75;;;;;;;8.53;63.57;99337.56;5141052;28;20085;-74
2022/12/20 10:43:43;;;;;;;19.90;9.55;;;;;;;8.77;62.96;99330.28;5144757;28;20177;-74
2022/12/20 10:46:40;;;;;;;24.65;11.00;;;;;;;8.81;63.78;99329.09;5151791;28;20054;-72
2022/12/20 10:49:36;;;;;;;24.98;12.43;;;;;;;8.86;63.72;99316.31;5161743;28;20061;-73
2022/12/20 10:52:26;;;;;;;21.63;10.20;;;;;;;8.85;62.55;99304.06;5161208;28;20428;-73
2022/12/20 10:55:36;;;;;;;23.42;10.52;;;;;;;8.94;63.05;99313.91;5160160;28;20053;-74
2022/12/20 10:58:26;;;;;;;18.92;9.35;;;;;;;8.90;62.99;99319.56;5151309;28;20050;-73
2022/12/20 11:01:18;;;;;;;19.77;9.60;;;;;;;8.90;63.63;99317.75;5156937;22;20050;-73
2022/12/20 11:04:27;;;;;;;19.52;8.93;;;;;;;9.01;63.36;99316.88;5153842;28;20058;-69
2022/12/20 11:07:31;;;;;;;26.70;12.55;;;;;;;9.00;63.01;99303.78;5132864;28;20106;-70
2022/12/20 11:10:29;;;;;;;23.98;12.55;;;;;;;8.97;63.52;99296.09;5134970;28;20047;-69
2022/12/20 11:13:25;;;;;;;20.55;10.65;;;;;;;8.94;63.54;99295.41;5111474;29;20057;-71
2022/12/20 11:16:38;;;;;;;21.08;11.05;;;;;;;9.17;64.36;99295.28;5122275;28;20054;-72
2022/12/20 11:19:52;;;;;;;28.33;12.18;;;;;;;9.14;64.47;99304.34;5122267;28;20776;-73
2022/12/20 11:22:50;;;;;;;23.52;11.57;;;;;;;9.19;64.79;99298.66;5123951;29;20201;-74
2022/12/20 11:25:40;;;;;;;17.92;9.88;;;;;;;9.21;64.09;99291.44;5120482;29;20552;-72
2022/12/20 11:28:36;;;;;;;15.68;8.80;;;;;;;9.33;64.22;99282.44;5116278;29;20062;-69
2022/12/20 11:31:36;;;;;;;20.15;7.93;;;;;;;9.34;62.13;99278.03;5119735;29;20170;-71
2022/12/20 11:34:50;;;;;;;14.50;6.50;;;;;;;9.47;62.20;99257.50;5119929;29;20074;-70
2022/12/20 11:38:08;;;;;;;12.90;6.88;;;;;;;9.51;60.98;99261.53;5125827;28;20058;-69
2022/12/20 11:41:14;;;;;;;15.40;7.15;;;;;;;9.55;60.79;99252.38;5104879;29;20795;-73
2022/12/20 11:44:04;;;;;;;14.18;6.32;;;;;;;9.61;60.80;99256.31;5122684;29;20106;-72
2022/12/20 11:47:43;;;;;;;13.32;6.10;;;;;;;9.61;60.93;99246.56;5122718;28;20055;-73
2022/12/20 11:50:44;;;;;;;15.15;6.25;;;;;;;9.64;59.87;99234.88;5121212;28;20629;-73
2022/12/20 11:53:42;;;;;;;12.68;6.65;;;;;;;9.70;59.99;99218.47;5122345;28;20172;-74
2022/12/20 11:56:36;;;;;;;13.10;6.40;;;;;;;9.57;60.67;99216.03;5119118;29;20051;-73
2022/12/20 11:59:41;;;;;;;13.43;7.70;;;;;;;9.66;60.87;99217.03;5123165;28;20521;-74
2022/12/20 12:02:50;;;;;;;12.38;7.03;;;;;;;9.60;60.34;99199.00;5123254;29;20082;-74
2022/12/20 12:05:59;;;;;;;10.75;6.45;;;;;;;9.27;61.34;99189.50;5109114;29;20149;-74
2022/12/20 12:08:56;;;;;;;11.57;6.85;;;;;;;9.36;60.13;99197.50;5120440;28;20435;-73
2022/12/20 12:12:01;;;;;;;16.90;6.55;;;;;;;9.63;60.11;99234.03;5121825;29;20070;-73
2022/12/20 12:15:04;;;;;;;12.90;6.70;;;;;;;9.85;60.45;99235.66;5120679;28;20057;-73
2022/12/20 12:18:09;;;;;;;15.05;7.47;;;;;;;9.97;60.05;99233.75;5121605;29;20055;-73
2022/12/20 12:21:07;;;;;;;14.25;6.95;;;;;;;10.19;58.41;99218.59;5119823;28;20047;-73
2022/12/20 12:24:11;;;;;;;13.95;7.15;;;;;;;10.18;58.27;99211.63;5123371;29;20238;-73
2022/12/20 12:27:02;;;;;;;13.25;6.68;;;;;;;10.02;59.10;99191.78;5121777;28;20054;-73
2022/12/20 12:29:55;;;;;;;13.73;6.88;;;;;;;9.78;59.82;99176.25;5116938;28;20055;-73
2022/12/20 12:32:49;;;;;;;12.10;6.40;;;;;;;9.87;60.11;99186.03;5121308;29;20047;-71
2022/12/20 12:36:05;;;;;;;16.08;6.68;;;;;;;10.07;59.04;99178.97;5114180;28;20070;-69
2022/12/20 12:39:11;;;;;;;9.48;5.80;;;;;;;9.76;59.72;99187.94;5118018;29;20453;-72
2022/12/20 12:42:45;;;;;;;11.27;6.38;;;;;;;9.91;59.21;99186.59;5122269;29;20153;-70
2022/12/20 12:46:09;;;;;;;11.30;6.20;;;;;;;10.02;59.67;99177.72;5113342;29;20197;-70
2022/12/20 12:49:18;;;;;;;11.80;6.43;;;;;;;10.06;58.45;99173.81;5120268;29;20054;-73
2022/12/20 12:52:25;;;;;;;;;;;;;;;10.19;57.78;99187.63;5120049;29;20101;-74
2022/12/20 12:55:39;;;;;;;14.15;6.60;;;;;;;10.26;57.92;99187.97;5121138;28;19981;-73
2022/12/20 12:58:31;;;;;;;14.07;7.28;;;;;;;10.35;57.83;99174.72;5119843;29;20063;-74
2022/12/20 13:01:59;;;;;;;13.07;6.95;;;;;;;10.01;59.25;99162.78;5121631;28;20047;-73
2022/12/20 13:05:19;;;;;;;12.45;6.82;;;;;;;10.23;58.51;99138.72;5121477;29;20047;-71
2022/12/20 13:08:16;;;;;;;11.82;7.32;;;;;;;10.33;58.21;99121.03;5120255;29;20049;-71
2022/12/20 13:11:11;;;;;;;14.30;6.47;;;;;;;10.34;58.82;99129.81;5120801;28;20553;-70
2022/12/20 13:14:22;;;;;;;13.82;6.80;;;;;;;10.39;58.96;99124.09;5119686;29;20517;-71
2022/12/20 13:17:16;;;;;;;22.40;6.20;;;;;;;10.50;58.32;99126.63;5105407;29;20078;-72
2022/12/20 13:20:17;;;;;;;11.48;6.10;;;;;;;10.47;58.86;99116.28;5120908;28;20194;-72
2022/12/20 13:23:07;;;;;;;13.30;6.53;;;;;;;10.02;58.76;99114.13;5118715;29;20166;-72
2022/12/20 13:25:57;;;;;;;16.30;6.50;;;;;;;9.49;60.17;99095.88;5118728;29;20050;-73
2022/12/20 13:28:47;;;;;;;10.23;6.47;;;;;;;9.73;60.18;99130.78;5118472;29;20058;-73
2022/12/20 13:31:38;;;;;;;12.80;5.55;;;;;;;10.27;58.29;99137.47;5117919;28;20065;-74
2022/12/20 13:34:52;;;;;;;13.25;6.28;;;;;;;10.33;57.78;99142.25;5113151;29;20085;-72
2022/12/20 13:38:00;;;;;;;18.25;6.47;;;;;;;10.56;57.62;99152.53;5103389;29;20073;-73
2022/12/20 13:40:57;;;;;;;14.35;6.32;;;;;;;10.44;58.01;99164.28;5116229;28;20050;-74
2022/12/20 13:43:49;;;;;;;22.27;12.07;;;;;;;10.38;58.73;99149.75;5120591;29;20509;-72
2022/12/20 13:46:46;;;;;;;18.45;7.25;;;;;;;10.58;58.31;99142.66;5106550;29;20055;-72